MPTO/PTY METAR and TAF weather

Enter ICAO airport designator
Station Type Date Time Source
MPTO METAR 2019/12/14 17:00 UTC NOAA

MPTO 141700Z 25004KT 170V340 9999 SCT020TCU 30/23 Q1012 NOSIG


Station Type Date Time Source
MPTO Decoded METAR 2019/12/14 17:00 UTC NOAA

Tocumen, Panama (MPTO) 09-03N 079-22W
Dec 14, 2019 - 12:00 PM EST / 2019.12.14 1700 UTC
Wind: from the WSW (250 degrees) at 5 MPH (4 KT) (direction variable):0
Visibility: greater than 7 mile(s):0
Sky conditions: partly cloudy
Weather: Towering cumulus clouds observed
Temperature: 86 F (30 C)
Heat index: 93.4 F (34.1 C):1
Dew Point: 73 F (23 C)
Relative Humidity: 66%
Pressure (altimeter): 29.88 in. Hg (1012 hPa)
ob: MPTO 141700Z 25004KT 170V340 9999 SCT020TCU 30/23 Q1012 NOSIG
cycle: 17

Station Type Date Time Source
MPTO TAF 2019/12/14 18:05 UTC NOAA

TAF MPTO 141700Z 1418/1524 28005KT 9999 SCT018 PROB30
TEMPO 1419/1421 18006KT 7000 SHRA SCT015CB SCT090
TEMPO 1421/1423 03010KT

Example: see airport list